Time;durP1;ratioP1;P1;durP2;ratioP2;P2;SDS_P1;SDS_P2;PMS_P1;PMS_P2;Temp;Humidity;BMP_temperature;BMP_pressure;BME280_temperature;BME280_humidity;BME280_pressure;Samples;Min_cycle;Max_cycle;Signal;HPM_P1;HPM_P2
2023/12/21 00:01:52;;;;;;;;;;;11.40;88.70;;;;;;5053944;28;19950;-78
2023/12/21 00:04:17;;;;;;;;;;;11.40;88.80;;;;;;5053683;28;20250;-79
2023/12/21 00:06:42;;;;;;;;;;;11.40;88.80;;;;;;5053881;28;19951;-78
2023/12/21 00:09:08;;;;;;;;;;;11.40;88.70;;;;;;5053549;28;19912;-78
2023/12/21 00:11:33;;;;;;;;;;;11.40;88.80;;;;;;5071059;28;20281;-78
2023/12/21 00:13:59;;;;;;;;;;;11.40;88.70;;;;;;5071355;28;20046;-79
2023/12/21 00:16:25;;;;;;;;;;;11.40;88.80;;;;;;5071445;28;19968;-78
2023/12/21 00:18:50;;;;;;;;;;;11.40;88.70;;;;;;5071099;28;19927;-78
2023/12/21 00:21:16;;;;;;;;;;;11.40;88.80;;;;;;5053290;28;19916;-78
2023/12/21 00:23:41;;;;;;;;;;;11.40;88.70;;;;;;5053301;28;19913;-78
2023/12/21 00:26:06;;;;;;;;;;;11.40;88.80;;;;;;5053450;28;19912;-79
2023/12/21 00:28:32;;;;;;;;;;;11.40;88.70;;;;;;5047614;28;19912;-78
2023/12/21 00:30:57;;;;;;;;;;;11.30;88.70;;;;;;5031520;28;19909;-78
2023/12/21 00:33:23;;;;;;;;;;;11.30;88.70;;;;;;5013261;28;19913;-78
2023/12/21 00:35:48;;;;;;;;;;;11.40;88.80;;;;;;5046770;28;19914;-78
2023/12/21 00:38:13;;;;;;;;;;;11.30;88.60;;;;;;5031052;28;19913;-77
2023/12/21 00:40:39;;;;;;;;;;;11.40;88.80;;;;;;5030143;28;19913;-78
2023/12/21 00:43:04;;;;;;;;;;;11.40;88.80;;;;;;5013231;28;20366;-78
2023/12/21 00:45:30;;;;;;;;;;;11.40;88.70;;;;;;5013413;28;19913;-78
2023/12/21 00:47:56;;;;;;;;;;;11.30;88.60;;;;;;5031087;28;19917;-78
2023/12/21 00:50:21;;;;;;;;;;;11.40;88.70;;;;;;5046207;28;19913;-78
2023/12/21 00:52:46;;;;;;;;;;;11.40;88.80;;;;;;5046102;28;19913;-78
2023/12/21 00:55:12;;;;;;;;;;;11.30;88.70;;;;;;5046212;28;19914;-78
2023/12/21 00:57:38;;;;;;;;;;;11.40;88.70;;;;;;5031057;28;19909;-78
2023/12/21 01:00:03;;;;;;;;;;;11.40;88.80;;;;;;5046056;28;19952;-78
2023/12/21 01:02:29;;;;;;;;;;;11.40;88.80;;;;;;5012975;28;20292;-78
2023/12/21 01:04:54;;;;;;;;;;;11.30;88.70;;;;;;5030664;28;19913;-79
2023/12/21 01:07:19;;;;;;;;;;;11.40;88.80;;;;;;5046139;28;19913;-78
2023/12/21 01:09:45;;;;;;;;;;;11.40;88.80;;;;;;5012986;28;19954;-78
2023/12/21 01:12:10;;;;;;;;;;;11.40;88.80;;;;;;5012941;28;20032;-78
2023/12/21 01:14:36;;;;;;;;;;;11.40;88.90;;;;;;5030541;28;20031;-79
2023/12/21 01:17:02;;;;;;;;;;;11.40;88.80;;;;;;5012956;28;20370;-78
2023/12/21 01:19:27;;;;;;;;;;;11.40;88.80;;;;;;5012717;28;19913;-78
2023/12/21 01:21:53;;;;;;;;;;;11.30;88.70;;;;;;5012859;28;20453;-78
2023/12/21 01:24:18;;;;;;;;;;;11.30;88.80;;;;;;5015047;28;19913;-79
2023/12/21 01:26:43;;;;;;;;;;;11.30;88.80;;;;;;5034733;28;19924;-78
2023/12/21 01:29:09;;;;;;;;;;;11.40;88.80;;;;;;5049750;28;19913;-78
2023/12/21 01:31:34;;;;;;;;;;;11.30;88.70;;;;;;5049912;28;19910;-79
2023/12/21 01:34:01;;;;;;;;;;;11.40;88.80;;;;;;5034586;28;19916;-79
2023/12/21 01:36:26;;;;;;;;;;;11.40;88.70;;;;;;5016761;28;19963;-78
2023/12/21 01:38:52;;;;;;;;;;;11.40;89.20;;;;;;5016801;28;19912;-78
2023/12/21 01:41:17;;;;;;;;;;;11.30;88.70;;;;;;5016730;28;19916;-79
2023/12/21 01:43:43;;;;;;;;;;;11.40;88.80;;;;;;5049679;28;19916;-79
2023/12/21 01:46:09;;;;;;;;;;;11.30;88.70;;;;;;5034374;28;19909;-79
2023/12/21 01:48:35;;;;;;;;;;;11.40;88.80;;;;;;5016230;28;20302;-78
2023/12/21 01:51:01;;;;;;;;;;;11.40;88.70;;;;;;5016631;28;19971;-78
2023/12/21 01:53:27;;;;;;;;;;;11.40;88.80;;;;;;5033995;28;19967;-78
2023/12/21 01:55:52;;;;;;;;;;;11.40;88.80;;;;;;5049786;28;20345;-79
2023/12/21 01:58:18;;;;;;;;;;;11.40;88.80;;;;;;5049189;28;19913;-78
2023/12/21 02:00:43;;;;;;;;;;;11.30;88.70;;;;;;5016461;28;19909;-78
2023/12/21 02:03:09;;;;;;;;;;;11.30;88.70;;;;;;5049534;28;19929;-78
2023/12/21 02:05:34;;;;;;;;;;;11.40;88.70;;;;;;5016420;28;19913;-78
2023/12/21 02:08:00;;;;;;;;;;;11.30;88.70;;;;;;5016442;28;20255;-78
2023/12/21 02:10:26;;;;;;;;;;;11.40;88.80;;;;;;5049331;28;19999;-78
2023/12/21 02:12:51;;;;;;;;;;;11.40;88.90;;;;;;5016172;28;20267;-78
2023/12/21 02:15:17;;;;;;;;;;;11.40;88.80;;;;;;5049310;28;19932;-78
2023/12/21 02:17:43;;;;;;;;;;;11.40;88.80;;;;;;5016388;28;20016;-78
2023/12/21 02:20:09;;;;;;;;;;;11.30;88.70;;;;;;5033504;28;20296;-78
2023/12/21 02:22:36;;;;;;;;;;;11.40;89.30;;;;;;5015905;28;19909;-78
2023/12/21 02:25:02;;;;;;;;;;;11.30;88.60;;;;;;5015866;28;19913;-78
2023/12/21 02:27:27;;;;;;;;;;;11.30;88.70;;;;;;5015733;28;20300;-78
2023/12/21 02:29:53;;;;;;;;;;;11.30;88.80;;;;;;5015665;28;19936;-78
2023/12/21 02:32:18;;;;;;;;;;;11.40;88.80;;;;;;5033398;28;19917;-79
2023/12/21 02:34:44;;;;;;;;;;;11.40;88.80;;;;;;5015467;28;20376;-79
2023/12/21 02:37:09;;;;;;;;;;;11.30;88.80;;;;;;5015663;28;20281;-78
2023/12/21 02:39:35;;;;;;;;;;;11.30;88.80;;;;;;5033255;28;19909;-78
2023/12/21 02:42:00;;;;;;;;;;;11.30;88.80;;;;;;5033316;28;19909;-79
2023/12/21 02:44:25;;;;;;;;;;;11.30;88.70;;;;;;5033220;28;19909;-79
2023/12/21 02:46:51;;;;;;;;;;;11.30;88.80;;;;;;5015601;28;19916;-79
2023/12/21 02:49:16;;;;;;;;;;;11.40;88.80;;;;;;5048218;28;20232;-79
2023/12/21 02:51:41;;;;;;;;;;;11.30;88.70;;;;;;5015438;28;19914;-79
2023/12/21 02:54:07;;;;;;;;;;;11.30;88.70;;;;;;5033115;28;19921;-78
2023/12/21 02:56:32;;;;;;;;;;;11.40;88.80;;;;;;5015455;28;20366;-78
2023/12/21 02:58:58;;;;;;;;;;;11.40;88.80;;;;;;5015010;28;19909;-78
2023/12/21 03:01:23;;;;;;;;;;;11.40;88.80;;;;;;5015324;28;19913;-78
2023/12/21 03:03:49;;;;;;;;;;;11.30;88.70;;;;;;5048516;28;19913;-79
2023/12/21 03:06:14;;;;;;;;;;;11.30;88.80;;;;;;5033091;28;19920;-77
2023/12/21 03:08:39;;;;;;;;;;;11.40;88.80;;;;;;5015042;28;19909;-79
2023/12/21 03:11:06;;;;;;;;;;;11.30;88.80;;;;;;5015107;28;19952;-78
2023/12/21 03:13:32;;;;;;;;;;;11.40;88.80;;;;;;5048115;28;19936;-78
2023/12/21 03:15:57;;;;;;;;;;;11.30;88.70;;;;;;5015187;28;19913;-78
2023/12/21 03:18:22;;;;;;;;;;;11.40;88.80;;;;;;5014725;28;19998;-78
2023/12/21 03:20:48;;;;;;;;;;;11.30;88.80;;;;;;5048123;28;20408;-79
2023/12/21 03:23:14;;;;;;;;;;;11.40;88.80;;;;;;5014711;28;19916;-78
2023/12/21 03:25:39;;;;;;;;;;;11.40;88.80;;;;;;5015020;28;20418;-78
2023/12/21 03:28:06;;;;;;;;;;;11.40;88.80;;;;;;5014721;28;20059;-79
2023/12/21 03:30:31;;;;;;;;;;;11.40;88.80;;;;;;5032221;28;20027;-79
2023/12/21 03:32:57;;;;;;;;;;;11.40;88.80;;;;;;5014386;28;20015;-79
2023/12/21 03:35:22;;;;;;;;;;;11.40;88.90;;;;;;5032226;28;19971;-79
2023/12/21 03:37:47;;;;;;;;;;;11.40;88.90;;;;;;5028593;28;20385;-78
2023/12/21 03:40:13;;;;;;;;;;;11.30;88.80;;;;;;5033634;28;19913;-78
2023/12/21 03:42:38;;;;;;;;;;;11.40;88.80;;;;;;5034564;28;19928;-78
2023/12/21 03:45:04;;;;;;;;;;;11.40;88.80;;;;;;5034200;28;20312;-78
2023/12/21 03:47:29;;;;;;;;;;;11.40;88.90;;;;;;5033498;28;20686;-78
2023/12/21 03:49:55;;;;;;;;;;;11.40;88.80;;;;;;5052046;28;19913;-78
2023/12/21 03:52:20;;;;;;;;;;;11.40;88.90;;;;;;5034202;28;20322;-79
2023/12/21 03:54:47;;;;;;;;;;;11.40;88.80;;;;;;5033820;28;19927;-78
2023/12/21 03:57:12;;;;;;;;;;;11.40;88.80;;;;;;5034072;28;20400;-79
2023/12/21 03:59:38;;;;;;;;;;;11.40;88.80;;;;;;5051874;28;19909;-79
2023/12/21 04:02:04;;;;;;;;;;;11.40;88.80;;;;;;5033667;28;20427;-78
2023/12/21 04:04:31;;;;;;;;;;;11.30;88.80;;;;;;5033803;28;19968;-78
2023/12/21 04:06:56;;;;;;;;;;;11.30;88.80;;;;;;5051560;28;19912;-78
2023/12/21 04:09:22;;;;;;;;;;;11.40;88.80;;;;;;5051430;28;19916;-78
2023/12/21 04:11:47;;;;;;;;;;;11.30;88.70;;;;;;5033511;28;20422;-78
2023/12/21 04:14:12;;;;;;;;;;;11.40;88.80;;;;;;5033512;28;19908;-79
2023/12/21 04:16:39;;;;;;;;;;;11.40;88.80;;;;;;5033627;28;19962;-79
2023/12/21 04:19:06;;;;;;;;;;;11.30;88.70;;;;;;5051368;28;20019;-78
2023/12/21 04:21:32;;;;;;;;;;;11.40;88.80;;;;;;5051682;28;19913;-78
2023/12/21 04:23:57;;;;;;;;;;;11.40;88.90;;;;;;5033290;28;19909;-79
2023/12/21 04:26:23;;;;;;;;;;;11.40;88.90;;;;;;5051191;28;19917;-79
2023/12/21 04:28:49;;;;;;;;;;;11.40;88.80;;;;;;5050887;28;19915;-78
2023/12/21 04:31:21;;;;;;;;;;;11.40;88.80;;;;;;5033380;28;19912;-79
2023/12/21 04:33:50;;;;;;;;;;;11.30;88.70;;;;;;5050989;28;19916;-78
2023/12/21 04:36:18;;;;;;;;;;;11.40;88.90;;;;;;5050368;28;22480;-78
2023/12/21 04:38:44;;;;;;;;;;;11.40;88.80;;;;;;5032783;28;20011;-79
2023/12/21 04:41:09;;;;;;;;;;;11.30;88.70;;;;;;5033046;28;20007;-78
2023/12/21 04:43:34;;;;;;;;;;;11.30;88.70;;;;;;5051184;28;19952;-79
2023/12/21 04:46:00;;;;;;;;;;;11.30;88.80;;;;;;5066302;28;19916;-78
2023/12/21 04:48:25;;;;;;;;;;;11.40;88.80;;;;;;5032816;28;19917;-78
2023/12/21 04:50:51;;;;;;;;;;;11.40;88.80;;;;;;5050868;28;19912;-78
2023/12/21 04:53:16;;;;;;;;;;;11.40;88.80;;;;;;5033041;28;19931;-79
2023/12/21 04:55:41;;;;;;;;;;;11.30;88.80;;;;;;5032905;28;19919;-78
2023/12/21 04:58:07;;;;;;;;;;;11.40;88.80;;;;;;5032665;28;19913;-79
2023/12/21 05:00:32;;;;;;;;;;;11.40;88.80;;;;;;5032718;28;19915;-79
2023/12/21 05:02:58;;;;;;;;;;;11.40;88.80;;;;;;5032582;28;19951;-78
2023/12/21 05:05:23;;;;;;;;;;;11.40;88.80;;;;;;5032951;28;20003;-78
2023/12/21 05:07:49;;;;;;;;;;;11.40;88.90;;;;;;5032609;28;19909;-78
2023/12/21 05:10:14;;;;;;;;;;;11.40;88.90;;;;;;5050455;28;20012;-79
2023/12/21 05:12:40;;;;;;;;;;;11.40;88.90;;;;;;5032894;28;19923;-79
2023/12/21 05:15:05;;;;;;;;;;;11.40;88.90;;;;;;5032750;28;19916;-78
2023/12/21 05:17:31;;;;;;;;;;;11.30;88.80;;;;;;5032795;28;20320;-79
2023/12/21 05:19:56;;;;;;;;;;;11.40;88.80;;;;;;5032368;28;20289;-79
2023/12/21 05:22:22;;;;;;;;;;;11.40;88.90;;;;;;5050598;28;19916;-79
2023/12/21 05:24:50;;;;;;;;;;;11.40;88.90;;;;;;5049152;28;20322;-80
2023/12/21 05:27:15;;;;;;;;;;;11.40;88.90;;;;;;5046378;28;20408;-79
2023/12/21 05:29:42;;;;;;;;;;;11.40;88.80;;;;;;5048777;28;19917;-79
2023/12/21 05:32:08;;;;;;;;;;;11.30;88.70;;;;;;5035060;28;19917;-80
2023/12/21 05:34:33;;;;;;;;;;;11.40;88.80;;;;;;5031846;28;19913;-80
2023/12/21 05:36:59;;;;;;;;;;;11.30;88.80;;;;;;5038853;28;19952;-79
2023/12/21 05:39:25;;;;;;;;;;;11.40;88.90;;;;;;5028475;28;20018;-79
2023/12/21 05:41:51;;;;;;;;;;;11.30;88.80;;;;;;5029171;28;19908;-79
2023/12/21 05:44:16;;;;;;;;;;;11.40;88.90;;;;;;5027035;28;20484;-79
2023/12/21 05:46:42;;;;;;;;;;;11.30;88.80;;;;;;5026451;28;19924;-79
2023/12/21 05:49:08;;;;;;;;;;;11.30;88.80;;;;;;5028998;28;19919;-79
2023/12/21 05:51:34;;;;;;;;;;;11.40;88.80;;;;;;5028935;28;19913;-79
2023/12/21 05:53:59;;;;;;;;;;;11.40;88.90;;;;;;5029043;28;19921;-79
2023/12/21 05:56:25;;;;;;;;;;;11.40;88.90;;;;;;5031555;28;19959;-79
2023/12/21 05:58:50;;;;;;;;;;;11.40;88.90;;;;;;5033665;28;19955;-79
2023/12/21 06:01:16;;;;;;;;;;;11.40;88.90;;;;;;5033197;28;19913;-80
2023/12/21 06:03:41;;;;;;;;;;;11.40;88.90;;;;;;5032565;28;19955;-80
2023/12/21 06:06:07;;;;;;;;;;;11.40;88.90;;;;;;5031599;28;19912;-79
2023/12/21 06:08:32;;;;;;;;;;;11.30;88.80;;;;;;5029542;28;19913;-80
2023/12/21 06:10:58;;;;;;;;;;;11.40;88.80;;;;;;5033398;28;19912;-80
2023/12/21 06:13:23;;;;;;;;;;;11.40;88.90;;;;;;5053022;28;19917;-79
2023/12/21 06:15:49;;;;;;;;;;;11.40;88.80;;;;;;5033314;28;19963;-79
2023/12/21 06:18:14;;;;;;;;;;;11.40;88.80;;;;;;5033558;28;19913;-80
2023/12/21 06:20:39;;;;;;;;;;;11.40;88.90;;;;;;5034028;28;19948;-79
2023/12/21 06:23:05;;;;;;;;;;;11.30;88.80;;;;;;5033686;28;19909;-78
2023/12/21 06:25:30;;;;;;;;;;;11.30;88.90;;;;;;5072651;28;19920;-80
2023/12/21 06:27:56;;;;;;;;;;;11.40;88.90;;;;;;5072995;28;19919;-79
2023/12/21 06:30:24;;;;;;;;;;;11.30;88.80;;;;;;5071126;28;19912;-80
2023/12/21 06:32:49;;;;;;;;;;;11.40;88.90;;;;;;5069280;28;19917;-78
2023/12/21 06:35:17;;;;;;;;;;;11.40;88.90;;;;;;5070976;28;19909;-79
2023/12/21 06:37:42;;;;;;;;;;;11.30;88.80;;;;;;5069260;28;19913;-78
2023/12/21 06:40:09;;;;;;;;;;;11.40;88.90;;;;;;5072225;28;20381;-80
2023/12/21 06:42:34;;;;;;;;;;;11.30;88.80;;;;;;5075741;28;20008;-81
2023/12/21 06:44:59;;;;;;;;;;;11.40;88.90;;;;;;5072866;28;19944;-80
2023/12/21 06:47:25;;;;;;;;;;;11.40;88.90;;;;;;5073260;28;19909;-80
2023/12/21 06:49:50;;;;;;;;;;;11.40;88.90;;;;;;5072244;28;19916;-80
2023/12/21 06:52:16;;;;;;;;;;;11.30;88.80;;;;;;5069713;28;19975;-80
2023/12/21 06:54:42;;;;;;;;;;;11.40;88.90;;;;;;5034620;28;19921;-80
2023/12/21 06:57:07;;;;;;;;;;;11.40;89.10;;;;;;5051440;28;20285;-80
2023/12/21 06:59:33;;;;;;;;;;;11.40;88.90;;;;;;5067088;28;20005;-80
2023/12/21 07:01:58;;;;;;;;;;;11.40;88.90;;;;;;5068331;28;19959;-79
2023/12/21 07:04:23;;;;;;;;;;;11.40;88.90;;;;;;5067472;28;19913;-81
2023/12/21 07:06:50;;;;;;;;;;;11.40;88.90;;;;;;5071405;28;20003;-81
2023/12/21 07:09:17;;;;;;;;;;;11.40;89.00;;;;;;5070099;28;20062;-79
2023/12/21 07:11:43;;;;;;;;;;;11.40;88.90;;;;;;5036240;28;19908;-80
2023/12/21 07:14:08;;;;;;;;;;;11.40;89.00;;;;;;5068201;28;19939;-80
2023/12/21 07:16:34;;;;;;;;;;;11.40;89.00;;;;;;5053272;28;19919;-80
2023/12/21 07:19:01;;;;;;;;;;;11.40;89.00;;;;;;5068290;28;19913;-79
2023/12/21 07:21:26;;;;;;;;;;;11.40;89.00;;;;;;5033273;28;20007;-80
2023/12/21 07:23:52;;;;;;;;;;;11.40;89.00;;;;;;5068500;28;19954;-79
2023/12/21 07:26:17;;;;;;;;;;;11.40;88.90;;;;;;5035255;28;19935;-80
2023/12/21 07:28:42;;;;;;;;;;;11.40;88.90;;;;;;5068618;28;19912;-79
2023/12/21 07:31:10;;;;;;;;;;;11.40;89.00;;;;;;5035398;28;20175;-80
2023/12/21 07:33:37;;;;;;;;;;;11.40;88.90;;;;;;5035406;28;19944;-80
2023/12/21 07:36:03;;;;;;;;;;;11.30;88.90;;;;;;5068230;28;19920;-80
2023/12/21 07:38:28;;;;;;;;;;;11.30;88.90;;;;;;5068347;28;19909;-79
2023/12/21 07:40:54;;;;;;;;;;;11.40;88.90;;;;;;5068262;28;19916;-80
2023/12/21 07:43:19;;;;;;;;;;;11.30;88.90;;;;;;5068341;28;19914;-80
2023/12/21 07:45:44;;;;;;;;;;;11.40;89.00;;;;;;5052704;28;20003;-80
2023/12/21 07:48:10;;;;;;;;;;;11.40;88.90;;;;;;5068311;28;19909;-80
2023/12/21 07:50:35;;;;;;;;;;;11.40;89.00;;;;;;5068151;28;19909;-80
2023/12/21 07:53:01;;;;;;;;;;;11.30;88.90;;;;;;5067592;28;19928;-79
2023/12/21 07:55:26;;;;;;;;;;;11.40;89.00;;;;;;5068059;28;19917;-80
2023/12/21 07:57:52;;;;;;;;;;;11.40;88.90;;;;;;5067863;28;19909;-79
2023/12/21 08:00:17;;;;;;;;;;;11.30;88.90;;;;;;5052601;28;20035;-80
2023/12/21 08:02:44;;;;;;;;;;;11.40;88.90;;;;;;5067835;28;19919;-79
2023/12/21 08:05:12;;;;;;;;;;;11.40;88.90;;;;;;5034240;28;20462;-80
2023/12/21 08:07:38;;;;;;;;;;;11.30;88.90;;;;;;5068157;28;19913;-80
2023/12/21 08:10:04;;;;;;;;;;;11.40;89.00;;;;;;5067545;28;19920;-80
2023/12/21 08:12:29;;;;;;;;;;;11.40;89.00;;;;;;5067773;28;20396;-80
2023/12/21 08:14:55;;;;;;;;;;;11.40;89.00;;;;;;5067446;28;19912;-80
2023/12/21 08:17:20;;;;;;;;;;;11.40;89.00;;;;;;5034286;28;19917;-80
2023/12/21 08:19:46;;;;;;;;;;;11.40;89.00;;;;;;5067555;28;19939;-80
2023/12/21 08:22:11;;;;;;;;;;;11.40;89.00;;;;;;5034150;28;19962;-80
2023/12/21 08:24:37;;;;;;;;;;;11.40;88.90;;;;;;5067411;28;19916;-80
2023/12/21 08:27:02;;;;;;;;;;;11.30;88.90;;;;;;5067803;28;19916;-80
2023/12/21 08:29:27;;;;;;;;;;;11.40;89.00;;;;;;5067151;28;20265;-80
2023/12/21 08:31:53;;;;;;;;;;;11.40;89.00;;;;;;5067123;28;19913;-80
2023/12/21 08:34:18;;;;;;;;;;;11.40;89.00;;;;;;5067138;28;19959;-80
2023/12/21 08:36:44;;;;;;;;;;;11.40;89.00;;;;;;5067395;28;19940;-80
2023/12/21 08:39:09;;;;;;;;;;;11.40;89.00;;;;;;5033824;28;20054;-80
2023/12/21 08:41:34;;;;;;;;;;;11.40;89.00;;;;;;5067115;28;19962;-80
2023/12/21 08:44:00;;;;;;;;;;;11.40;89.00;;;;;;5033397;28;20033;-80
2023/12/21 08:46:25;;;;;;;;;;;11.40;89.00;;;;;;5067217;28;19915;-80
2023/12/21 08:48:51;;;;;;;;;;;11.40;89.00;;;;;;5067139;28;19908;-80
2023/12/21 08:51:16;;;;;;;;;;;11.40;89.00;;;;;;5057899;28;20023;-80
2023/12/21 08:53:45;;;;;;;;;;;11.40;89.00;;;;;;5013729;28;20346;-80
2023/12/21 08:56:10;;;;;;;;;;;11.40;89.00;;;;;;5013163;28;19913;-80
2023/12/21 08:58:36;;;;;;;;;;;11.30;89.00;;;;;;5013461;28;19919;-79
2023/12/21 09:01:01;;;;;;;;;;;11.40;89.00;;;;;;5013616;28;19913;-80
2023/12/21 09:03:27;;;;;;;;;;;11.40;89.10;;;;;;5013045;28;20329;-80
2023/12/21 09:05:53;;;;;;;;;;;11.30;89.00;;;;;;5031354;28;20016;-80
2023/12/21 09:08:18;;;;;;;;;;;11.40;89.00;;;;;;5013654;28;19916;-79
2023/12/21 09:10:44;;;;;;;;;;;11.40;89.00;;;;;;5013603;28;20288;-80
2023/12/21 09:13:09;;;;;;;;;;;11.40;89.00;;;;;;5013586;28;19917;-80
2023/12/21 09:15:36;;;;;;;;;;;11.40;89.00;;;;;;5013773;28;19909;-80
2023/12/21 09:18:03;;;;;;;;;;;11.40;89.00;;;;;;5013547;28;20001;-80
2023/12/21 09:20:28;;;;;;;;;;;11.40;89.00;;;;;;5031118;28;20449;-80
2023/12/21 09:22:53;;;;;;;;;;;11.40;89.00;;;;;;5013487;28;19991;-80
2023/12/21 09:25:19;;;;;;;;;;;11.30;89.00;;;;;;5013699;28;19955;-80
2023/12/21 09:27:44;;;;;;;;;;;11.40;89.00;;;;;;5013518;28;19913;-80
2023/12/21 09:30:10;;;;;;;;;;;11.40;89.00;;;;;;5031075;28;19920;-80
2023/12/21 09:32:35;;;;;;;;;;;11.40;89.00;;;;;;5013707;28;19924;-80
2023/12/21 09:35:01;;;;;;;;;;;11.40;89.00;;;;;;5013562;28;20285;-79
2023/12/21 09:37:26;;;;;;;;;;;11.40;89.00;;;;;;5013412;28;19913;-80
2023/12/21 09:39:53;;;;;;;;;;;11.40;89.00;;;;;;5013247;28;19909;-81
2023/12/21 09:42:19;;;;;;;;;;;11.40;88.90;;;;;;5013523;28;19916;-80
2023/12/21 09:44:46;;;;;;;;;;;11.40;89.00;;;;;;5023873;28;19919;-79
2023/12/21 09:47:16;;;;;;;;;;;11.40;89.00;;;;;;5055553;28;19935;-80
2023/12/21 09:49:44;;;;;;;;;;;11.40;89.00;;;;;;5087032;28;19951;-80
2023/12/21 09:52:10;;;;;;;;;;;11.40;89.00;;;;;;5087152;28;20015;-80
2023/12/21 09:54:36;;;;;;;;;;;11.40;89.00;;;;;;5087126;28;20365;-80
2023/12/21 09:57:03;;;;;;;;;;;11.40;89.00;;;;;;5087383;28;19913;-80
2023/12/21 09:59:30;;;;;;;;;;;11.40;89.00;;;;;;5086792;28;20353;-80
2023/12/21 10:01:55;;;;;;;;;;;11.30;89.00;;;;;;5086981;28;19909;-80
2023/12/21 10:04:21;;;;;;;;;;;11.40;89.10;;;;;;5087072;28;20292;-80
2023/12/21 10:06:46;;;;;;;;;;;11.40;89.00;;;;;;5087345;28;20270;-79
2023/12/21 10:09:15;;;;;;;;;;;11.40;89.00;;;;;;5087097;28;20000;-80
2023/12/21 10:11:41;;;;;;;;;;;11.40;89.00;;;;;;5087280;28;20178;-80
2023/12/21 10:14:16;;;;;;;;;;;11.40;88.90;;;;;;5086649;28;19913;-80
2023/12/21 10:16:41;;;;;;;;;;;11.40;89.00;;;;;;5054715;28;20417;-80
2023/12/21 10:19:13;;;;;;;;;;;11.40;88.90;;;;;;5086588;28;19996;-80
2023/12/21 10:21:40;;;;;;;;;;;11.40;88.90;;;;;;5083368;28;20039;-80
2023/12/21 10:24:06;;;;;;;;;;;11.40;89.00;;;;;;5078069;28;19909;-80
2023/12/21 10:26:31;;;;;;;;;;;11.40;88.90;;;;;;5086744;28;20025;-80
2023/12/21 10:28:57;;;;;;;;;;;11.40;88.90;;;;;;5086560;28;19908;-80
2023/12/21 10:31:22;;;;;;;;;;;11.40;89.00;;;;;;5086522;28;20369;-80
2023/12/21 10:33:48;;;;;;;;;;;11.40;89.00;;;;;;5086322;28;19913;-80
2023/12/21 10:36:13;;;;;;;;;;;11.40;89.10;;;;;;5086930;28;20332;-79
2023/12/21 10:38:40;;;;;;;;;;;11.40;89.00;;;;;;5086213;28;19959;-79
2023/12/21 10:41:05;;;;;;;;;;;11.40;89.00;;;;;;5086424;28;20077;-79
2023/12/21 10:43:32;;;;;;;;;;;11.30;88.90;;;;;;5054146;28;19956;-79
2023/12/21 10:45:57;;;;;;;;;;;11.40;89.00;;;;;;5086233;28;19917;-78
2023/12/21 10:48:24;;;;;;;;;;;11.50;89.00;;;;;;5085893;28;19909;-80
2023/12/21 10:50:51;;;;;;;;;;;11.40;89.00;;;;;;5086212;28;20384;-79
2023/12/21 10:53:18;;;;;;;;;;;11.40;89.00;;;;;;5053595;28;19943;-80
2023/12/21 10:55:44;;;;;;;;;;;11.40;89.10;;;;;;5085900;28;19986;-79
2023/12/21 10:58:10;;;;;;;;;;;11.40;89.00;;;;;;5085863;28;20365;-80
2023/12/21 11:00:36;;;;;;;;;;;11.40;89.10;;;;;;5085756;28;19923;-80
2023/12/21 11:03:04;;;;;;;;;;;11.40;89.00;;;;;;5085863;28;19956;-78
2023/12/21 11:05:32;;;;;;;;;;;11.40;89.00;;;;;;5085708;28;19909;-80
2023/12/21 11:08:00;;;;;;;;;;;11.40;89.00;;;;;;5085890;28;19936;-80
2023/12/21 11:10:26;;;;;;;;;;;11.40;89.00;;;;;;5085733;28;20034;-79
2023/12/21 11:12:52;;;;;;;;;;;11.40;89.00;;;;;;5085550;28;19943;-77
2023/12/21 11:15:21;;;;;;;;;;;11.40;89.00;;;;;;5085973;28;19917;-79
2023/12/21 11:17:49;;;;;;;;;;;11.40;89.00;;;;;;5085908;28;20419;-80
2023/12/21 11:20:17;;;;;;;;;;;11.40;88.90;;;;;;5085434;28;19962;-80
2023/12/21 11:22:43;;;;;;;;;;;11.40;89.00;;;;;;5085424;28;19912;-80
2023/12/21 11:25:12;;;;;;;;;;;11.40;89.00;;;;;;5053269;28;19913;-80
2023/12/21 11:27:41;;;;;;;;;;;11.40;89.00;;;;;;5085738;28;19924;-80
2023/12/21 11:30:08;;;;;;;;;;;11.40;89.00;;;;;;5085400;28;19913;-79
2023/12/21 11:32:33;;;;;;;;;;;11.40;89.00;;;;;;5085423;28;19924;-80
2023/12/21 11:35:00;;;;;;;;;;;11.40;89.00;;;;;;5085306;28;19912;-80
2023/12/21 11:37:25;;;;;;;;;;;11.40;89.00;;;;;;5085650;28;19987;-80
2023/12/21 11:39:52;;;;;;;;;;;11.40;89.00;;;;;;5085128;28;20012;-79
2023/12/21 11:42:31;;;;;;;;;;;11.40;89.00;;;;;;5085457;28;20377;-80
2023/12/21 11:45:00;;;;;;;;;;;11.40;89.00;;;;;;5079650;28;19955;-80
2023/12/21 11:47:26;;;;;;;;;;;11.40;89.00;;;;;;5035013;28;20012;-79
2023/12/21 11:50:02;;;;;;;;;;;11.40;89.10;;;;;;5034793;28;19959;-80
2023/12/21 11:52:28;;;;;;;;;;;11.40;89.10;;;;;;5068245;28;19917;-80
2023/12/21 11:54:54;;;;;;;;;;;11.40;89.10;;;;;;5034782;28;19978;-80
2023/12/21 11:57:19;;;;;;;;;;;11.40;89.10;;;;;;5034995;28;19948;-80
2023/12/21 11:59:45;;;;;;;;;;;11.40;89.10;;;;;;5034487;28;19909;-80
2023/12/21 12:02:13;;;;;;;;;;;11.40;89.10;;;;;;5034551;28;19912;-80
2023/12/21 12:04:38;;;;;;;;;;;11.40;89.10;;;;;;5034662;28;19916;-80
2023/12/21 12:07:04;;;;;;;;;;;11.40;89.10;;;;;;5033907;28;19913;-80
2023/12/21 12:09:29;;;;;;;;;;;11.40;89.10;;;;;;5034458;28;19920;-80
2023/12/21 12:11:55;;;;;;;;;;;11.40;89.10;;;;;;5034794;28;19909;-80
2023/12/21 12:14:20;;;;;;;;;;;11.40;89.20;;;;;;5034321;28;19917;-80
2023/12/21 12:16:46;;;;;;;;;;;11.40;89.20;;;;;;5034268;28;20368;-80
2023/12/21 12:19:12;;;;;;;;;;;11.40;89.10;;;;;;5034477;28;20030;-80
2023/12/21 12:21:38;;;;;;;;;;;11.40;89.10;;;;;;5034406;28;19912;-80
2023/12/21 12:24:05;;;;;;;;;;;11.40;89.20;;;;;;5043136;28;20297;-81
2023/12/21 12:26:31;;;;;;;;;;;11.40;89.20;;;;;;5055875;28;19955;-80
2023/12/21 12:28:56;;;;;;;;;;;11.40;89.20;;;;;;5055519;28;19912;-80
2023/12/21 12:31:21;;;;;;;;;;;11.40;89.20;;;;;;5055711;28;19913;-80
2023/12/21 12:33:47;;;;;;;;;;;11.40;89.20;;;;;;5053707;28;19955;-82
2023/12/21 12:36:18;;;;;;;;;;;11.40;89.30;;;;;;5057197;28;19916;-81
2023/12/21 12:38:45;;;;;;;;;;;11.40;89.30;;;;;;5055814;28;19909;-80
2023/12/21 12:41:20;;;;;;;;;;;11.40;89.30;;;;;;5056237;28;19935;-81
2023/12/21 12:43:46;;;;;;;;;;;11.40;89.30;;;;;;5056006;28;19909;-81
2023/12/21 12:46:13;;;;;;;;;;;12.10;89.70;;;;;;5054765;28;19923;-81
2023/12/21 12:48:39;;;;;;;;;;;11.50;89.30;;;;;;5054952;28;19984;-78
2023/12/21 12:51:05;;;;;;;;;;;11.40;89.30;;;;;;5056095;28;19916;-79
2023/12/21 12:53:33;;;;;;;;;;;11.40;89.20;;;;;;5055482;28;19921;-79
2023/12/21 12:56:00;;;;;;;;;;;11.60;89.40;;;;;;5059275;28;20007;-80
2023/12/21 12:58:31;;;;;;;;;;;11.50;89.30;;;;;;5055043;28;19916;-80
2023/12/21 13:00:56;;;;;;;;;;;11.40;89.30;;;;;;5055347;28;19917;-80
2023/12/21 13:03:23;;;;;;;;;;;11.40;89.30;;;;;;5054747;28;20284;-79
2023/12/21 13:05:48;;;;;;;;;;;11.40;89.30;;;;;;5055009;28;19909;-80
2023/12/21 13:08:14;;;;;;;;;;;11.50;89.40;;;;;;5054322;28;19908;-79
2023/12/21 13:10:39;;;;;;;;;;;11.40;89.30;;;;;;5054482;28;19919;-79
2023/12/21 13:13:06;;;;;;;;;;;11.50;89.40;;;;;;5053477;28;19913;-79
2023/12/21 13:15:31;;;;;;;;;;;11.40;89.30;;;;;;5055062;28;19908;-79
2023/12/21 13:17:57;;;;;;;;;;;11.50;89.30;;;;;;5054056;28;19936;-79
2023/12/21 13:20:23;;;;;;;;;;;11.40;89.50;;;;;;5053126;28;19947;-79
2023/12/21 13:22:48;;;;;;;;;;;11.50;89.40;;;;;;5053510;28;19935;-79
2023/12/21 13:25:16;;;;;;;;;;;11.60;89.50;;;;;;5053917;28;19919;-80
2023/12/21 13:27:43;;;;;;;;;;;11.50;89.30;;;;;;5053396;28;19916;-80
2023/12/21 13:30:10;;;;;;;;;;;11.40;89.30;;;;;;5053302;28;20285;-79
2023/12/21 13:32:36;;;;;;;;;;;11.50;89.30;;;;;;5053469;28;20295;-79
2023/12/21 13:35:03;;;;;;;;;;;11.50;89.30;;;;;;5053123;28;20003;-80
2023/12/21 13:37:31;;;;;;;;;;;11.40;89.30;;;;;;5053130;28;19920;-79
2023/12/21 13:39:56;;;;;;;;;;;11.50;89.50;;;;;;5055795;28;20121;-79
2023/12/21 13:45:35;;;;;;;;;;;11.50;89.30;;;;;;4993323;28;19921;-80
2023/12/21 13:48:00;;;;;;;;;;;11.50;89.30;;;;;;5032601;28;19916;-80
2023/12/21 13:50:26;;;;;;;;;;;11.50;89.30;;;;;;5036480;28;19909;-79
2023/12/21 13:52:52;;;;;;;;;;;11.40;89.20;;;;;;5053391;28;19912;-79
2023/12/21 13:55:17;;;;;;;;;;;11.40;89.30;;;;;;5036867;28;19970;-81
2023/12/21 13:57:43;;;;;;;;;;;11.50;89.40;;;;;;5055062;28;20361;-79
2023/12/21 14:00:09;;;;;;;;;;;11.40;89.40;;;;;;5036646;28;19909;-80
2023/12/21 14:02:35;;;;;;;;;;;11.50;89.50;;;;;;5036534;28;19909;-80
2023/12/21 14:05:01;;;;;;;;;;;11.40;89.40;;;;;;5036662;28;20015;-79
2023/12/21 14:07:26;;;;;;;;;;;11.50;89.50;;;;;;5037413;28;19912;-79
2023/12/21 14:09:51;;;;;;;;;;;11.40;89.50;;;;;;5054148;28;19944;-79
2023/12/21 14:12:17;;;;;;;;;;;11.50;89.40;;;;;;5036265;28;20377;-79